Time;durP1;ratioP1;P1;durP2;ratioP2;P2;SDS_P1;SDS_P2;PMS_P1;PMS_P2;Temp;Humidity;BMP_temperature;BMP_pressure;BME280_temperature;BME280_humidity;BME280_pressure;Samples;Min_cycle;Max_cycle;Signal;HPM_P1;HPM_P2
2023/06/06 00:01:36;;;;;;;2.03;1.60;;;;;;;14.75;100.00;98517.47;15273591;19;20015;-58
2023/06/06 00:07:03;;;;;;;2.35;1.60;;;;;;;14.68;100.00;98513.84;15275160;19;20021;-55
2023/06/06 00:12:32;;;;;;;1.75;1.52;;;;;;;14.63;100.00;98511.66;15272416;19;20025;-58
2023/06/06 00:17:59;;;;;;;1.73;1.50;;;;;;;14.61;100.00;98513.72;15273368;19;20589;-50
2023/06/06 00:23:24;;;;;;;3.00;1.50;;;;;;;14.58;100.00;98514.06;15270717;19;20013;-52
2023/06/06 00:28:52;;;;;;;1.80;1.48;;;;;;;14.56;100.00;98502.56;15278151;19;20614;-50
2023/06/06 00:34:16;;;;;;;2.58;1.50;;;;;;;14.52;100.00;98504.81;15290592;19;20022;-50
2023/06/06 00:39:42;;;;;;;3.05;1.60;;;;;;;14.47;100.00;98505.38;15285697;19;20074;-51
2023/06/06 00:45:09;;;;;;;1.92;1.50;;;;;;;14.43;100.00;98506.75;15288486;19;20766;-52
2023/06/06 00:50:42;;;;;;;2.42;1.50;;;;;;;14.43;100.00;98503.22;15279376;19;20030;-51
2023/06/06 00:56:09;;;;;;;2.30;1.40;;;;;;;14.44;100.00;98507.59;15289389;19;20020;-51
2023/06/06 01:01:36;;;;;;;1.77;1.50;;;;;;;14.39;100.00;98501.88;15271534;19;20547;-54
2023/06/06 01:07:01;;;;;;;1.98;1.40;;;;;;;14.35;100.00;98501.41;15287846;19;20018;-55
2023/06/06 01:12:38;;;;;;;2.15;1.48;;;;;;;14.28;100.00;98500.47;15284943;19;20530;-51
2023/06/06 01:18:07;;;;;;;2.15;1.50;;;;;;;14.17;100.00;98507.16;15287624;19;20006;-55
2023/06/06 01:23:36;;;;;;;3.05;1.60;;;;;;;13.97;100.00;98501.38;15284495;19;20014;-57
2023/06/06 01:29:01;;;;;;;1.73;1.40;;;;;;;13.88;100.00;98497.91;15283460;19;20475;-55
2023/06/06 01:34:35;;;;;;;3.55;1.70;;;;;;;13.87;100.00;98497.06;15273911;19;20031;-55
2023/06/06 01:40:07;;;;;;;1.95;1.60;;;;;;;13.88;100.00;98500.59;15280549;19;20041;-47
2023/06/06 01:45:37;;;;;;;1.55;1.45;;;;;;;13.92;100.00;98501.13;15284717;19;20081;-58
2023/06/06 01:51:02;;;;;;;1.67;1.30;;;;;;;13.87;100.00;98509.78;15278288;19;20021;-49
2023/06/06 01:56:33;;;;;;;2.15;1.50;;;;;;;13.75;100.00;98513.94;15281918;19;20534;-51
2023/06/06 02:01:58;;;;;;;2.20;1.80;;;;;;;13.62;100.00;98525.31;15277396;19;20025;-49
2023/06/06 02:07:24;;;;;;;2.50;1.80;;;;;;;13.35;100.00;98530.16;15276020;19;20311;-54
2023/06/06 02:12:53;;;;;;;2.42;1.70;;;;;;;13.26;100.00;98524.81;15278447;19;20035;-53
2023/06/06 02:18:17;;;;;;;1.73;1.60;;;;;;;13.21;100.00;98519.09;15277985;19;20427;-51
2023/06/06 02:23:43;;;;;;;1.88;1.33;;;;;;;13.25;100.00;98525.00;15276153;19;20014;-56
2023/06/06 02:29:10;;;;;;;1.67;1.50;;;;;;;13.28;100.00;98521.94;15282567;19;20073;-51
2023/06/06 02:34:35;;;;;;;1.75;1.50;;;;;;;13.32;100.00;98515.13;15277935;19;20011;-52
2023/06/06 02:40:05;;;;;;;1.50;1.40;;;;;;;13.37;100.00;98525.44;15277911;19;20086;-52
2023/06/06 02:45:33;;;;;;;2.20;1.60;;;;;;;13.40;100.00;98527.81;15277711;19;20023;-55
2023/06/06 02:50:57;;;;;;;3.85;1.60;;;;;;;13.39;100.00;98531.50;15277250;19;20475;-56
2023/06/06 02:56:22;;;;;;;2.78;1.40;;;;;;;13.39;100.00;98531.50;15276800;19;20421;-55
2023/06/06 03:01:51;;;;;;;1.58;1.45;;;;;;;13.43;100.00;98529.31;15279053;19;20015;-49
2023/06/06 03:07:13;;;;;;;1.65;1.40;;;;;;;13.50;100.00;98531.16;15256821;19;20683;-48
2023/06/06 03:12:37;;;;;;;1.67;1.30;;;;;;;13.56;100.00;98538.56;15274947;19;20018;-43
2023/06/06 03:18:06;;;;;;;1.90;1.40;;;;;;;13.61;100.00;98539.88;15270012;19;20086;-43
2023/06/06 03:23:36;;;;;;;2.22;1.40;;;;;;;13.63;100.00;98545.97;15274103;19;20498;-46
2023/06/06 03:29:01;;;;;;;2.92;1.38;;;;;;;13.66;100.00;98542.91;15275815;19;20631;-45
2023/06/06 03:34:28;;;;;;;1.70;1.40;;;;;;;13.65;100.00;98538.50;15278976;19;20378;-49
2023/06/06 03:39:55;;;;;;;2.08;1.40;;;;;;;13.66;100.00;98545.63;15263085;19;20022;-44
2023/06/06 03:45:20;;;;;;;2.75;1.52;;;;;;;13.65;100.00;98541.22;15273545;19;20614;-46
2023/06/06 03:50:48;;;;;;;1.70;1.48;;;;;;;13.64;100.00;98534.13;15273857;19;20041;-46
2023/06/06 03:56:15;;;;;;;1.35;1.25;;;;;;;13.64;100.00;98536.81;15275991;19;20019;-44
2023/06/06 04:01:44;;;;;;;1.50;1.40;;;;;;;13.66;100.00;98538.31;15282651;19;20015;-44
2023/06/06 04:07:11;;;;;;;2.15;1.70;;;;;;;13.58;100.00;98532.97;15288493;19;20022;-45
2023/06/06 04:12:38;;;;;;;2.30;1.50;;;;;;;13.52;100.00;98537.22;15275032;19;20014;-47
2023/06/06 04:18:03;;;;;;;2.83;1.70;;;;;;;13.53;100.00;98538.06;15286955;19;20014;-44
2023/06/06 04:23:31;;;;;;;2.88;1.80;;;;;;;13.41;100.00;98553.88;15288622;19;20023;-46
2023/06/06 04:28:58;;;;;;;3.47;2.00;;;;;;;13.30;100.00;98554.22;15286408;19;20022;-43
2023/06/06 04:34:29;;;;;;;2.40;1.90;;;;;;;13.22;100.00;98555.09;15284371;19;20498;-45
2023/06/06 04:39:56;;;;;;;3.20;2.08;;;;;;;13.15;100.00;98563.06;15285299;19;20023;-44
2023/06/06 04:45:23;;;;;;;4.82;2.10;;;;;;;13.16;100.00;98563.91;15274932;19;20018;-43
2023/06/06 04:50:52;;;;;;;2.75;2.10;;;;;;;13.16;100.00;98572.88;15284868;19;20967;-45
2023/06/06 04:56:20;;;;;;;2.78;2.30;;;;;;;13.17;100.00;98561.03;15287576;19;20077;-43
2023/06/06 05:01:46;;;;;;;2.83;2.20;;;;;;;13.16;100.00;98569.34;15284973;19;20021;-43
2023/06/06 05:07:11;;;;;;;4.00;2.10;;;;;;;13.22;100.00;98574.03;15286428;19;20014;-44
2023/06/06 05:12:38;;;;;;;2.70;2.30;;;;;;;13.29;100.00;98574.19;15283601;19;20024;-44
2023/06/06 05:18:03;;;;;;;2.22;1.50;;;;;;;13.44;100.00;98582.44;15275126;19;20384;-45
2023/06/06 05:23:27;;;;;;;2.25;1.33;;;;;;;13.59;100.00;98587.94;15285847;19;20740;-46
2023/06/06 05:28:55;;;;;;;1.90;1.40;;;;;;;13.78;100.00;98587.50;15284916;19;20034;-44
2023/06/06 05:34:19;;;;;;;2.42;1.45;;;;;;;13.92;100.00;98596.72;15287728;19;20089;-45
2023/06/06 05:39:44;;;;;;;2.90;1.60;;;;;;;14.11;100.00;98602.72;15283908;19;20093;-44
2023/06/06 05:45:13;;;;;;;2.53;1.40;;;;;;;14.23;100.00;98603.97;15281096;19;20033;-43
2023/06/06 05:50:38;;;;;;;3.05;1.60;;;;;;;14.35;100.00;98595.44;15270985;19;20380;-44
2023/06/06 05:56:03;;;;;;;1.65;1.50;;;;;;;14.42;100.00;98608.06;15285109;19;20482;-45
2023/06/06 06:01:30;;;;;;;1.40;1.30;;;;;;;14.54;100.00;98613.06;15281266;19;20010;-45
2023/06/06 06:06:55;;;;;;;3.22;1.48;;;;;;;14.60;100.00;98615.06;15286653;19;20093;-46
2023/06/06 06:12:20;;;;;;;3.72;1.55;;;;;;;14.70;100.00;98610.25;15280270;19;20018;-45
2023/06/06 06:17:48;;;;;;;2.80;1.50;;;;;;;14.79;100.00;98619.16;15280505;19;20750;-45
2023/06/06 06:23:12;;;;;;;1.80;1.70;;;;;;;14.88;100.00;98620.75;15265379;19;20020;-44
2023/06/06 06:28:39;;;;;;;3.58;1.50;;;;;;;14.97;100.00;98620.66;15278910;19;20085;-44
2023/06/06 06:34:06;;;;;;;2.40;1.50;;;;;;;15.07;100.00;98622.09;15283751;19;20020;-43
2023/06/06 06:39:38;;;;;;;1.88;1.30;;;;;;;15.16;100.00;98622.00;15281166;19;20026;-45
2023/06/06 06:45:02;;;;;;;1.58;1.40;;;;;;;15.30;100.00;98629.31;15280377;19;20018;-45
2023/06/06 06:50:30;;;;;;;1.70;1.40;;;;;;;15.41;100.00;98639.72;15279984;19;20085;-46
2023/06/06 06:55:55;;;;;;;4.43;1.40;;;;;;;15.53;100.00;98636.53;15268700;19;20027;-44
2023/06/06 07:01:27;;;;;;;2.88;1.40;;;;;;;15.59;100.00;98633.03;15279713;19;20018;-44
2023/06/06 07:06:55;;;;;;;2.83;1.27;;;;;;;15.64;100.00;98633.34;15276006;19;20031;-44
2023/06/06 07:12:21;;;;;;;1.27;1.17;;;;;;;15.69;100.00;98636.34;15278028;19;20015;-47
2023/06/06 07:17:49;;;;;;;1.40;1.30;;;;;;;15.77;100.00;98629.09;15279393;19;20017;-48
2023/06/06 07:23:18;;;;;;;1.30;1.20;;;;;;;15.82;100.00;98632.06;15274533;19;20017;-43
2023/06/06 07:28:42;;;;;;;3.97;1.27;;;;;;;15.87;100.00;98616.09;15266900;19;20042;-44
2023/06/06 07:34:07;;;;;;;1.92;1.40;;;;;;;15.97;100.00;98615.78;15282136;19;20073;-45
2023/06/06 07:39:35;;;;;;;1.30;1.20;;;;;;;16.04;100.00;98619.41;15292657;19;20077;-48
2023/06/06 07:45:00;;;;;;;1.58;1.20;;;;;;;16.16;100.00;98615.16;15292863;19;20361;-44
2023/06/06 07:50:24;;;;;;;1.90;1.40;;;;;;;16.32;100.00;98616.78;15286881;19;20018;-45
2023/06/06 07:55:54;;;;;;;1.45;1.10;;;;;;;16.41;100.00;98611.22;15294310;19;20020;-46
2023/06/06 08:01:19;;;;;;;2.60;1.20;;;;;;;16.53;100.00;98606.94;15278945;19;20040;-44
2023/06/06 08:06:45;;;;;;;2.92;1.20;;;;;;;16.64;100.00;98605.56;15283415;19;20972;-49
2023/06/06 08:12:14;;;;;;;2.30;1.10;;;;;;;16.75;100.00;98604.22;15290475;19;20507;-47
2023/06/06 08:17:39;;;;;;;1.83;1.10;;;;;;;16.82;100.00;98596.09;15292055;19;20018;-46
2023/06/06 08:23:03;;;;;;;1.95;1.20;;;;;;;17.04;100.00;98595.03;15287383;19;20019;-50
2023/06/06 08:28:31;;;;;;;1.08;0.98;;;;;;;17.06;100.00;98578.50;15292832;19;20053;-48
2023/06/06 08:33:55;;;;;;;1.55;1.10;;;;;;;17.17;100.00;98585.28;15285955;19;20031;-53
2023/06/06 08:39:21;;;;;;;1.80;1.20;;;;;;;17.19;100.00;98575.88;15288042;19;20017;-46
2023/06/06 08:44:50;;;;;;;1.48;1.20;;;;;;;17.29;100.00;98574.66;15286540;19;20489;-46
2023/06/06 08:50:16;;;;;;;1.38;1.00;;;;;;;17.29;100.00;98577.38;15286544;19;20017;-50
2023/06/06 08:55:48;;;;;;;2.40;1.17;;;;;;;17.70;100.00;98573.78;15289108;19;20031;-45
2023/06/06 09:01:16;;;;;;;2.75;1.00;;;;;;;17.65;100.00;98574.41;15281231;19;20040;-48
2023/06/06 09:06:43;;;;;;;3.20;1.08;;;;;;;17.86;100.00;98569.88;15278862;19;20019;-45
2023/06/06 09:12:10;;;;;;;1.70;1.10;;;;;;;17.97;100.00;98573.91;15284523;19;20019;-47
2023/06/06 09:17:37;;;;;;;1.35;1.13;;;;;;;18.07;100.00;98577.06;15285863;19;20498;-48
2023/06/06 09:23:02;;;;;;;1.20;1.00;;;;;;;18.14;100.00;98582.53;15285197;19;20077;-49
2023/06/06 09:28:28;;;;;;;1.38;1.10;;;;;;;18.18;100.00;98586.56;15287975;19;20025;-49
2023/06/06 09:33:56;;;;;;;1.63;1.10;;;;;;;18.16;100.00;98584.03;15281499;19;20011;-48
2023/06/06 09:39:23;;;;;;;4.03;1.13;;;;;;;18.22;100.00;98589.69;15286424;19;20498;-46
2023/06/06 09:44:47;;;;;;;1.88;1.20;;;;;;;18.10;100.00;98582.13;15287726;19;20023;-50
2023/06/06 09:50:24;;;;;;;2.40;1.10;;;;;;;17.95;100.00;98584.13;15274957;19;20037;-45
2023/06/06 09:55:50;;;;;;;1.45;1.30;;;;;;;17.77;100.00;98581.97;15277838;19;20036;-45
2023/06/06 10:01:16;;;;;;;2.10;1.13;;;;;;;17.77;100.00;98592.88;15282735;19;20855;-44
2023/06/06 10:06:46;;;;;;;1.58;1.20;;;;;;;17.78;100.00;98589.97;15270834;19;20095;-45
2023/06/06 10:12:12;;;;;;;3.58;1.52;;;;;;;17.73;100.00;98587.00;15289175;19;20007;-44
2023/06/06 10:17:39;;;;;;;1.98;1.25;;;;;;;17.70;100.00;98595.56;15280082;19;20690;-43
2023/06/06 10:23:10;;;;;;;1.63;1.20;;;;;;;17.70;100.00;98603.75;15281797;19;20007;-44
2023/06/06 10:28:38;;;;;;;2.50;1.40;;;;;;;17.67;100.00;98612.34;15284832;19;20527;-43
2023/06/06 10:34:07;;;;;;;2.17;1.50;;;;;;;17.66;100.00;98602.50;15282700;19;20018;-45
2023/06/06 10:39:41;;;;;;;2.03;1.40;;;;;;;17.70;100.00;98599.16;15274282;19;20014;-43
2023/06/06 10:45:06;;;;;;;2.08;1.42;;;;;;;17.70;100.00;98598.31;15280685;19;20021;-45
2023/06/06 10:50:31;;;;;;;2.00;1.30;;;;;;;17.83;100.00;98603.81;15287737;19;20018;-43
2023/06/06 10:55:59;;;;;;;2.75;1.48;;;;;;;18.01;100.00;98607.91;15293096;19;20465;-44
2023/06/06 11:01:26;;;;;;;2.28;1.38;;;;;;;18.10;100.00;98611.28;15281636;19;20015;-43
2023/06/06 11:06:51;;;;;;;3.10;1.38;;;;;;;18.17;100.00;98604.78;15278970;19;20024;-43
2023/06/06 11:12:30;;;;;;;2.13;1.33;;;;;;;18.22;100.00;98606.06;15268740;19;20010;-43
2023/06/06 11:17:57;;;;;;;1.50;1.40;;;;;;;18.23;100.00;98613.19;15281153;19;20047;-42
2023/06/06 11:23:22;;;;;;;2.40;1.30;;;;;;;18.33;100.00;98614.50;15279778;19;20098;-44
2023/06/06 11:28:50;;;;;;;1.40;1.25;;;;;;;18.36;100.00;98610.50;15279556;19;20339;-44
2023/06/06 11:34:16;;;;;;;2.67;1.45;;;;;;;18.36;100.00;98607.78;15278735;19;20024;-43
2023/06/06 11:39:42;;;;;;;1.67;1.40;;;;;;;18.36;100.00;98607.78;15279025;19;20018;-43
2023/06/06 11:45:17;;;;;;;2.38;1.60;;;;;;;18.22;100.00;98608.78;15269530;19;20482;-43
2023/06/06 11:50:42;;;;;;;2.95;1.60;;;;;;;18.27;100.00;98609.03;15278332;19;20470;-44
2023/06/06 11:56:07;;;;;;;2.50;1.50;;;;;;;18.18;100.00;98611.09;15279031;19;20010;-43
2023/06/06 12:01:35;;;;;;;2.58;1.35;;;;;;;18.20;100.00;98610.88;15278105;19;20038;-43
2023/06/06 12:07:05;;;;;;;2.45;1.40;;;;;;;18.08;100.00;98606.03;15276388;19;20086;-45
2023/06/06 12:12:30;;;;;;;3.05;1.50;;;;;;;18.10;100.00;98609.38;15276270;19;20021;-44
2023/06/06 12:18:03;;;;;;;1.83;1.52;;;;;;;18.08;100.00;98595.13;15266439;19;20584;-43
2023/06/06 12:23:36;;;;;;;3.17;1.50;;;;;;;18.17;100.00;98601.22;15287514;19;20027;-44
2023/06/06 12:29:01;;;;;;;2.83;1.50;;;;;;;18.24;100.00;98598.53;15292031;19;20015;-43
2023/06/06 12:34:59;;;;;;;2.47;1.52;;;;;;;18.34;100.00;98598.94;15289578;19;20074;-44
2023/06/06 12:40:27;;;;;;;2.28;1.67;;;;;;;18.30;100.00;98597.69;15290488;19;20090;-43
2023/06/06 12:45:51;;;;;;;1.98;1.52;;;;;;;18.27;100.00;98595.38;15282843;19;20462;-43
2023/06/06 12:51:18;;;;;;;3.03;1.63;;;;;;;18.37;100.00;98601.28;15274210;19;20014;-44
2023/06/06 12:56:43;;;;;;;2.50;1.52;;;;;;;18.44;100.00;98602.09;15286244;19;20025;-44
2023/06/06 13:02:09;;;;;;;2.28;1.88;;;;;;;18.60;100.00;98597.31;15291845;19;20078;-43
2023/06/06 13:07:36;;;;;;;2.42;1.90;;;;;;;18.72;100.00;98592.91;15285133;19;20550;-45
2023/06/06 13:13:01;;;;;;;3.20;1.83;;;;;;;18.74;100.00;98582.63;15287513;19;20018;-43
2023/06/06 13:18:25;;;;;;;2.40;1.80;;;;;;;18.70;100.00;98592.25;15288278;19;20015;-44
2023/06/06 13:23:56;;;;;;;3.45;1.90;;;;;;;18.66;100.00;98584.72;15278352;19;20045;-45
2023/06/06 13:29:22;;;;;;;3.30;1.77;;;;;;;18.52;100.00;98589.34;15286490;19;20015;-45
2023/06/06 13:34:47;;;;;;;2.72;2.10;;;;;;;18.58;100.00;98581.13;15283530;19;20057;-44
2023/06/06 13:40:16;;;;;;;2.63;1.88;;;;;;;18.66;100.00;98587.44;15285745;19;20032;-45
2023/06/06 13:45:40;;;;;;;3.22;1.90;;;;;;;18.74;100.00;98579.88;15286577;19;20082;-48
2023/06/06 13:51:12;;;;;;;2.28;1.75;;;;;;;18.73;100.00;98571.91;15280407;19;20372;-45
2023/06/06 13:56:47;;;;;;;3.15;2.00;;;;;;;18.69;100.00;98581.56;15279461;19;20007;-45
2023/06/06 14:02:12;;;;;;;3.08;1.77;;;;;;;18.58;100.00;98577.56;15283821;19;20015;-42
2023/06/06 14:07:38;;;;;;;2.92;1.85;;;;;;;18.43;100.00;98572.31;15280816;19;20029;-46
2023/06/06 14:13:06;;;;;;;3.22;1.95;;;;;;;18.24;100.00;98565.78;15281869;19;20019;-45
2023/06/06 14:18:30;;;;;;;5.55;2.20;;;;;;;18.12;100.00;98562.81;15283908;19;20018;-44
2023/06/06 14:23:56;;;;;;;2.35;1.95;;;;;;;18.08;100.00;98556.94;15275635;19;20041;-43
2023/06/06 14:29:24;;;;;;;3.10;2.25;;;;;;;17.96;100.00;98564.88;15281493;19;20014;-43
2023/06/06 14:34:49;;;;;;;4.30;2.38;;;;;;;17.93;100.00;98567.19;15280618;19;20014;-44
2023/06/06 14:40:15;;;;;;;4.45;2.40;;;;;;;17.81;100.00;98573.22;15283490;19;20102;-43
2023/06/06 14:45:42;;;;;;;3.50;2.42;;;;;;;17.81;100.00;98567.78;15281113;19;20021;-45
2023/06/06 14:51:07;;;;;;;3.15;2.53;;;;;;;17.81;100.00;98573.22;15280806;19;20794;-44
2023/06/06 14:56:31;;;;;;;3.35;2.50;;;;;;;17.69;100.00;98570.22;15276121;19;20024;-42
2023/06/06 15:01:59;;;;;;;4.40;2.50;;;;;;;17.74;100.00;98577.78;15277719;19;20006;-46
2023/06/06 15:07:18;;;;;;;3.80;2.42;;;;;;;17.71;100.00;98561.84;15278373;19;20038;-44
2023/06/06 15:12:42;;;;;;;4.13;2.35;;;;;;;17.69;100.00;98569.41;15280682;19;20013;-43
2023/06/06 15:18:10;;;;;;;5.60;2.50;;;;;;;17.74;100.00;98566.88;15280131;19;20013;-46
2023/06/06 15:23:35;;;;;;;3.22;2.60;;;;;;;17.70;100.00;98561.03;15280231;19;20037;-44
2023/06/06 15:29:01;;;;;;;5.95;2.30;;;;;;;17.71;100.00;98564.56;15268924;19;20018;-46
2023/06/06 15:34:29;;;;;;;2.72;2.28;;;;;;;17.72;100.00;98560.81;15277703;19;20011;-45
2023/06/06 15:39:55;;;;;;;3.17;2.42;;;;;;;17.68;100.00;98554.09;15283135;19;20007;-44
2023/06/06 15:45:20;;;;;;;3.53;2.70;;;;;;;17.73;100.00;98548.84;15285901;19;20418;-47
2023/06/06 15:50:48;;;;;;;3.45;2.40;;;;;;;17.78;100.00;98542.78;15280327;19;20404;-44
2023/06/06 15:56:13;;;;;;;2.97;2.60;;;;;;;17.80;100.00;98538.84;15284085;19;20368;-47
2023/06/06 16:01:38;;;;;;;3.15;2.53;;;;;;;17.91;100.00;98539.28;15282273;19;20010;-44
2023/06/06 16:07:05;;;;;;;4.25;2.50;;;;;;;17.95;100.00;98535.94;15287535;19;20354;-45
2023/06/06 16:12:32;;;;;;;3.03;2.10;;;;;;;17.94;100.00;98534.25;15285079;19;20025;-44
2023/06/06 16:17:57;;;;;;;2.40;2.20;;;;;;;18.01;100.00;98537.03;15289634;19;21551;-44
2023/06/06 16:23:25;;;;;;;2.97;2.22;;;;;;;17.99;100.00;98533.66;15288472;19;20339;-42
2023/06/06 16:28:50;;;;;;;3.55;2.70;;;;;;;17.95;100.00;98540.53;15287130;19;20082;-43
2023/06/06 16:34:15;;;;;;;3.70;2.40;;;;;;;17.94;100.00;98533.41;15270788;19;20471;-44
2023/06/06 16:39:42;;;;;;;2.22;1.98;;;;;;;18.01;100.00;98534.28;15286362;19;20027;-42
2023/06/06 16:45:08;;;;;;;2.75;1.90;;;;;;;18.14;100.00;98531.59;15288093;19;20431;-46
2023/06/06 16:50:33;;;;;;;3.97;2.28;;;;;;;18.24;100.00;98528.44;15286883;19;20010;-43
2023/06/06 16:56:07;;;;;;;3.03;2.03;;;;;;;18.30;100.00;98533.06;15288626;19;20018;-45
2023/06/06 17:01:34;;;;;;;2.40;2.20;;;;;;;18.43;100.00;98532.22;15286413;19;20018;-46
2023/06/06 17:06:58;;;;;;;2.45;2.05;;;;;;;18.51;100.00;98533.09;15275815;19;20033;-43
2023/06/06 17:12:27;;;;;;;2.88;2.22;;;;;;;18.54;100.00;98532.66;15285418;19;20019;-43
2023/06/06 17:17:52;;;;;;;2.95;2.22;;;;;;;18.50;100.00;98534.13;15286306;19;20014;-46
2023/06/06 17:23:18;;;;;;;2.90;2.10;;;;;;;18.45;100.00;98529.31;15283674;19;20488;-49
2023/06/06 17:28:45;;;;;;;2.10;1.85;;;;;;;18.46;100.00;98531.00;15281562;19;20024;-48
2023/06/06 17:34:10;;;;;;;2.63;2.00;;;;;;;18.43;100.00;98528.69;15282641;19;20089;-48
2023/06/06 17:39:34;;;;;;;4.53;1.98;;;;;;;18.44;100.00;98533.91;15272508;19;20035;-46
2023/06/06 17:45:04;;;;;;;5.13;2.10;;;;;;;18.47;100.00;98524.47;15287033;19;20348;-50
2023/06/06 17:50:32;;;;;;;2.10;1.90;;;;;;;18.42;100.00;98525.09;15282809;19;20666;-48
2023/06/06 17:56:03;;;;;;;2.90;2.08;;;;;;;18.43;100.00;98531.41;15260802;19;20031;-49
2023/06/06 18:01:32;;;;;;;4.50;1.80;;;;;;;18.45;100.00;98535.59;15281295;19;20014;-49
2023/06/06 18:06:56;;;;;;;3.05;2.17;;;;;;;18.46;100.00;98536.44;15282525;19;20021;-46
2023/06/06 18:12:21;;;;;;;3.00;2.00;;;;;;;18.46;100.00;98542.72;15271770;19;20015;-47
2023/06/06 18:17:48;;;;;;;2.95;2.20;;;;;;;18.42;100.00;98541.47;15282746;19;20018;-52
2023/06/06 18:23:14;;;;;;;3.17;2.10;;;;;;;18.39;100.00;98546.50;15277549;19;20024;-55
2023/06/06 18:28:39;;;;;;;2.35;1.80;;;;;;;18.33;100.00;98542.72;15274639;19;20021;-51
2023/06/06 18:34:06;;;;;;;4.28;1.80;;;;;;;18.27;100.00;98547.13;15278862;19;20013;-48
2023/06/06 18:39:31;;;;;;;2.92;2.10;;;;;;;18.18;100.00;98557.38;15279984;19;20085;-47
2023/06/06 18:44:56;;;;;;;3.33;2.08;;;;;;;18.11;100.00;98555.72;15268109;19;20046;-46
2023/06/06 18:50:23;;;;;;;2.47;2.00;;;;;;;18.02;100.00;98563.25;15276264;19;20025;-46
2023/06/06 18:55:55;;;;;;;3.42;2.15;;;;;;;17.94;100.00;98566.09;15276525;19;20020;-49
2023/06/06 19:01:20;;;;;;;4.25;2.30;;;;;;;17.87;100.00;98566.94;15278748;19;20028;-50
2023/06/06 19:06:47;;;;;;;2.67;2.20;;;;;;;17.77;100.00;98565.63;15279912;19;20082;-48
2023/06/06 19:12:13;;;;;;;2.53;2.25;;;;;;;17.69;100.00;98580.31;15276628;19;20007;-48
2023/06/06 19:17:51;;;;;;;3.13;2.53;;;;;;;17.59;100.00;98579.81;15267692;19;20385;-51
2023/06/06 19:23:19;;;;;;;4.07;2.80;;;;;;;17.53;100.00;98582.31;15278757;19;20042;-47
2023/06/06 19:28:44;;;;;;;3.05;2.63;;;;;;;17.42;100.00;98591.06;15276631;19;20002;-49
2023/06/06 19:34:09;;;;;;;3.08;2.42;;;;;;;17.38;100.00;98596.09;15304972;19;20012;-49
2023/06/06 19:39:36;;;;;;;2.75;2.50;;;;;;;17.28;100.00;98594.75;15307822;19;20019;-49
2023/06/06 19:45:02;;;;;;;2.88;2.65;;;;;;;17.22;100.00;98596.41;15307995;19;20021;-51
2023/06/06 19:50:27;;;;;;;3.10;2.80;;;;;;;17.15;100.00;98601.81;15293255;19;20018;-48
2023/06/06 19:56:01;;;;;;;3.47;2.95;;;;;;;17.07;100.00;98613.69;15303769;19;20021;-47
2023/06/06 20:01:27;;;;;;;3.47;3.00;;;;;;;17.05;100.00;98610.31;15304677;19;20475;-47
2023/06/06 20:06:52;;;;;;;3.53;2.65;;;;;;;17.01;100.00;98614.50;15302902;19;20054;-50
2023/06/06 20:12:20;;;;;;;3.88;3.00;;;;;;;17.02;100.00;98620.75;15303181;19;20014;-50
2023/06/06 20:17:46;;;;;;;4.13;3.10;;;;;;;16.92;100.00;98619.19;14790483;19;10001199;-49
2023/06/06 20:23:12;;;;;;;3.00;2.70;;;;;;;16.87;100.00;98610.81;15299591;19;20494;-49
2023/06/06 20:28:41;;;;;;;3.15;2.70;;;;;;;16.82;100.00;98613.25;15300319;19;20010;-51
2023/06/06 20:34:06;;;;;;;4.72;2.65;;;;;;;16.74;100.00;98625.13;15301250;19;20335;-47
2023/06/06 20:39:38;;;;;;;3.33;3.03;;;;;;;16.71;100.00;98624.69;15303217;19;20407;-46
2023/06/06 20:45:08;;;;;;;4.47;3.20;;;;;;;16.68;100.00;98627.78;15288576;19;20106;-52
2023/06/06 20:50:32;;;;;;;3.05;2.83;;;;;;;16.64;100.00;98625.44;15277078;19;20085;-48
2023/06/06 20:55:57;;;;;;;3.20;2.78;;;;;;;16.60;100.00;98623.31;15281660;19;20485;-47
2023/06/06 21:01:24;;;;;;;5.05;3.15;;;;;;;16.55;100.00;98626.63;15286707;19;20011;-45
2023/06/06 21:06:49;;;;;;;3.33;2.78;;;;;;;16.53;100.00;98628.69;15286633;19;20021;-49
2023/06/06 21:12:15;;;;;;;3.15;2.90;;;;;;;16.47;100.00;98619.44;15284740;19;20085;-49
2023/06/06 21:17:42;;;;;;;3.67;3.05;;;;;;;16.41;100.00;98622.09;15289332;19;20017;-48
2023/06/06 21:23:07;;;;;;;5.13;3.50;;;;;;;16.32;100.00;98627.66;15279744;19;20015;-51
2023/06/06 21:28:32;;;;;;;3.75;3.13;;;;;;;16.27;100.00;98629.28;15278347;19;20021;-48
2023/06/06 21:33:59;;;;;;;3.97;3.58;;;;;;;16.24;100.00;98626.94;15283493;19;20017;-45
2023/06/06 21:39:25;;;;;;;4.05;3.55;;;;;;;16.22;100.00;98626.31;15284949;19;20017;-47
2023/06/06 21:44:49;;;;;;;5.05;3.78;;;;;;;16.17;100.00;98621.44;15279961;19;20046;-49
2023/06/06 21:50:16;;;;;;;4.05;3.30;;;;;;;16.14;100.00;98619.13;15281921;19;20021;-45
2023/06/06 21:55:48;;;;;;;4.20;3.60;;;;;;;16.10;100.00;98628.69;15294565;19;20018;-87
2023/06/06 22:01:28;;;;;;;3.80;3.50;;;;;;;16.01;100.00;98622.50;15307580;19;20029;-86
2023/06/06 22:07:09;;;;;;;4.18;3.78;;;;;;;15.98;100.00;98629.19;15306984;19;20014;-86
2023/06/06 22:12:37;;;;;;;6.53;3.80;;;;;;;15.95;100.00;98618.69;15310886;19;20026;-86
2023/06/06 22:18:31;;;;;;;4.20;3.80;;;;;;;15.94;100.00;98622.44;15305992;19;20343;-86
2023/06/06 22:24:24;;;;;;;4.15;3.47;;;;;;;15.90;100.00;98620.28;15281465;19;20018;-44
2023/06/06 22:29:49;;;;;;;4.13;3.70;;;;;;;15.84;100.00;98616.44;15265176;19;20010;-42
2023/06/06 22:35:14;;;;;;;4.28;3.80;;;;;;;15.80;100.00;98609.72;15278216;19;20040;-41
2023/06/06 22:40:41;;;;;;;4.93;3.90;;;;;;;15.74;100.00;98619.47;15280255;19;20684;-42
2023/06/06 22:46:07;;;;;;;3.88;3.58;;;;;;;15.67;100.00;98616.66;15280491;19;20024;-43
2023/06/06 22:51:33;;;;;;;3.70;3.40;;;;;;;15.61;100.00;98611.97;15275725;19;20050;-42
2023/06/06 22:57:01;;;;;;;3.42;3.10;;;;;;;15.58;100.00;98617.81;15279977;19;20021;-41
2023/06/06 23:02:25;;;;;;;3.92;3.53;;;;;;;15.52;100.00;98618.53;15267641;19;20082;-40
2023/06/06 23:07:50;;;;;;;4.55;4.15;;;;;;;15.48;100.00;98618.09;15277239;19;20028;-41
2023/06/06 23:13:17;;;;;;;5.05;4.20;;;;;;;15.43;100.00;98619.69;15277255;19;20020;-41
2023/06/06 23:18:43;;;;;;;4.30;3.90;;;;;;;15.38;100.00;98617.53;15278896;19;20020;-40
2023/06/06 23:24:07;;;;;;;4.88;4.35;;;;;;;15.33;100.00;98614.53;15278173;19;20458;-42
2023/06/06 23:29:36;;;;;;;4.90;4.20;;;;;;;15.28;100.00;98622.41;15274762;19;20023;-44
2023/06/06 23:35:00;;;;;;;6.13;4.55;;;;;;;15.22;100.00;98630.25;15264140;19;20021;-43
2023/06/06 23:40:26;;;;;;;5.63;5.07;;;;;;;15.14;100.00;98648.47;15276655;19;20022;-43
2023/06/06 23:45:53;;;;;;;6.30;5.22;;;;;;;15.03;100.00;98661.47;15276327;19;20020;-44
2023/06/06 23:51:19;;;;;;;6.32;5.43;;;;;;;15.02;100.00;98672.53;15282378;19;20102;-48
2023/06/06 23:56:44;;;;;;;6.05;5.13;;;;;;;15.02;100.00;98686.91;15285181;19;20037;-47
